Orbital elements of COSMOS 944
| Launched | 23 August 1977 |
| Flight ended | – |
| Launch site | Plesetsk Missile and Space Complex, Russia |
| Owner | Commonwealth of Independent States (former USSR) |
| NORAD ID | 10290 |
| Date fetched |
Epoch osculation |
Inc. [°] |
Ecc. | RA asc node [hr] |
Arg Peri. [°] |
Mean anom [°] |
Mean motion [rev/day] |
Abs. mag |
| Date fetched |
Epoch osculation |
Inc. [°] |
Ecc. | RA asc node [hr] |
Arg Peri. [°] |
Mean anom [°] |
Mean motion [rev/day] |
Abs. mag |
| 2026 May 08 17:57 | 2026 May 05 12:33:52 | 74.0279 | 0.00061 | 2.2013 | 235.4923 | 298.6181 | 12.49707 | – |
| 2026 May 07 17:58 | 2026 May 05 12:33:52 | 74.0279 | 0.00061 | 2.2013 | 235.4923 | 298.6181 | 12.49707 | – |
| 2026 May 06 17:57 | 2026 May 05 12:33:52 | 74.0279 | 0.00061 | 2.2013 | 235.4923 | 298.6181 | 12.49707 | – |
| 2026 May 05 17:57 | 2026 May 05 12:33:52 | 74.0279 | 0.00061 | 2.2013 | 235.4923 | 298.6181 | 12.49707 | – |
| 2026 May 04 17:57 | 2026 Apr 30 13:27:03 | 74.0278 | 0.00062 | 2.6408 | 242.5150 | 298.6181 | 12.49707 | – |
| 2026 May 03 17:57 | 2026 Apr 30 13:27:03 | 74.0278 | 0.00062 | 2.6408 | 242.5150 | 298.6181 | 12.49707 | – |
| 2026 May 02 17:57 | 2026 Apr 30 13:27:03 | 74.0278 | 0.00062 | 2.6408 | 242.5150 | 298.6181 | 12.49707 | – |
| 2026 May 01 17:56 | 2026 Apr 30 13:27:03 | 74.0278 | 0.00062 | 2.6408 | 242.5150 | 298.6181 | 12.49707 | – |
| 2026 Apr 30 17:56 | 2026 Apr 30 13:27:03 | 74.0278 | 0.00062 | 2.6408 | 242.5150 | 298.6181 | 12.49707 | – |
| 2026 Apr 29 17:57 | 2026 Apr 24 07:18:45 | 74.0269 | 0.00063 | 3.1948 | 251.1649 | 298.6181 | 12.49707 | – |
| 2026 Apr 28 17:56 | 2026 Apr 24 07:18:45 | 74.0269 | 0.00063 | 3.1948 | 251.1649 | 298.6181 | 12.49707 | – |
| 2026 Apr 27 17:58 | 2026 Apr 24 07:18:45 | 74.0269 | 0.00063 | 3.1948 | 251.1649 | 298.6181 | 12.49707 | – |
| 2026 Apr 26 17:58 | 2026 Apr 24 07:18:45 | 74.0269 | 0.00063 | 3.1948 | 251.1649 | 298.6181 | 12.49707 | – |
| 2026 Apr 25 17:58 | 2026 Apr 24 07:18:45 | 74.0269 | 0.00063 | 3.1948 | 251.1649 | 298.6181 | 12.49707 | – |
| 2026 Apr 24 17:59 | 2026 Apr 24 07:18:45 | 74.0269 | 0.00063 | 3.1948 | 251.1649 | 298.6181 | 12.49707 | – |
| 2026 Apr 23 17:57 | 2026 Apr 19 06:28:01 | 74.0259 | 0.00063 | 3.6407 | 258.1014 | 298.6181 | 12.49707 | – |
| 2026 Apr 22 17:57 | 2026 Apr 19 06:28:01 | 74.0259 | 0.00063 | 3.6407 | 258.1014 | 298.6181 | 12.49707 | – |
| 2026 Apr 21 17:57 | 2026 Apr 19 06:28:01 | 74.0259 | 0.00063 | 3.6407 | 258.1014 | 298.6181 | 12.49707 | – |
| 2026 Apr 20 17:57 | 2026 Apr 19 06:28:01 | 74.0259 | 0.00063 | 3.6407 | 258.1014 | 298.6181 | 12.49707 | – |
| 2026 Apr 19 17:58 | 2026 Apr 19 06:28:01 | 74.0259 | 0.00063 | 3.6407 | 258.1014 | 298.6181 | 12.49707 | – |
| 2026 Apr 18 17:56 | 2026 Apr 13 06:07:59 | 74.0247 | 0.00064 | 4.1734 | 266.1655 | 298.6181 | 12.49707 | – |
| 2026 Apr 16 17:57 | 2026 Apr 13 06:07:59 | 74.0247 | 0.00064 | 4.1734 | 266.1655 | 298.6181 | 12.49707 | – |
| 2026 Apr 14 17:57 | 2026 Apr 13 06:07:59 | 74.0247 | 0.00064 | 4.1734 | 266.1655 | 298.6181 | 12.49707 | – |
| 2026 Apr 13 17:57 | 2026 Apr 13 06:07:59 | 74.0247 | 0.00064 | 4.1734 | 266.1655 | 298.6181 | 12.49707 | – |
| 2026 Apr 12 17:57 | 2026 Apr 08 09:12:38 | 74.0235 | 0.00064 | 4.6049 | 272.7001 | 298.6181 | 12.49707 | – |
| 2026 Apr 11 17:57 | 2026 Apr 08 09:12:38 | 74.0235 | 0.00064 | 4.6049 | 272.7001 | 298.6181 | 12.49707 | – |